sensor_id;sensor_type;location;lat;lon;timestamp;pressure;altitude;pressure_sealevel;temperature;humidity
58072;BME280;60383;46.626;18.866;2024-01-30T00:01:51;102803.16;;;0.39;89.73
58072;BME280;60383;46.626;18.866;2024-01-30T00:04:16;102807.72;;;0.37;90.24
58072;BME280;60383;46.626;18.866;2024-01-30T00:06:43;102814.25;;;0.25;91.50
58072;BME280;60383;46.626;18.866;2024-01-30T00:09:08;102812.81;;;0.07;92.88
58072;BME280;60383;46.626;18.866;2024-01-30T00:11:35;102816.66;;;-0.07;93.12
58072;BME280;60383;46.626;18.866;2024-01-30T00:14:00;102817.34;;;0.05;93.29
58072;BME280;60383;46.626;18.866;2024-01-30T00:16:26;102817.72;;;-0.14;94.22
58072;BME280;60383;46.626;18.866;2024-01-30T00:18:52;102813.19;;;-0.12;93.87
58072;BME280;60383;46.626;18.866;2024-01-30T00:21:18;102816.38;;;0.09;93.79
58072;BME280;60383;46.626;18.866;2024-01-30T00:23:44;102823.88;;;-0.07;94.12
58072;BME280;60383;46.626;18.866;2024-01-30T00:26:10;102819.91;;;0.11;94.04
58072;BME280;60383;46.626;18.866;2024-01-30T00:28:39;102812.59;;;0.18;93.52
58072;BME280;60383;46.626;18.866;2024-01-30T00:31:05;102808.09;;;0.18;93.85
58072;BME280;60383;46.626;18.866;2024-01-30T00:33:30;102812.84;;;0.05;94.21
58072;BME280;60383;46.626;18.866;2024-01-30T00:35:56;102805.16;;;0.29;93.76
58072;BME280;60383;46.626;18.866;2024-01-30T00:38:22;102807.28;;;0.13;93.78
58072;BME280;60383;46.626;18.866;2024-01-30T00:40:48;102815.13;;;0.25;93.56
58072;BME280;60383;46.626;18.866;2024-01-30T00:43:13;102809.50;;;0.36;93.76
58072;BME280;60383;46.626;18.866;2024-01-30T00:45:39;102812.97;;;0.43;92.78
58072;BME280;60383;46.626;18.866;2024-01-30T00:48:04;102814.03;;;0.36;93.43
58072;BME280;60383;46.626;18.866;2024-01-30T00:50:30;102816.13;;;0.21;92.84
58072;BME280;60383;46.626;18.866;2024-01-30T00:52:55;102811.47;;;0.28;92.62
58072;BME280;60383;46.626;18.866;2024-01-30T00:55:21;102809.41;;;0.41;92.55
58072;BME280;60383;46.626;18.866;2024-01-30T00:57:46;102808.53;;;0.39;92.65
58072;BME280;60383;46.626;18.866;2024-01-30T01:00:13;102809.28;;;0.47;92.38
58072;BME280;60383;46.626;18.866;2024-01-30T01:02:41;102811.97;;;0.47;92.91
58072;BME280;60383;46.626;18.866;2024-01-30T01:05:06;102806.34;;;0.17;94.73
58072;BME280;60383;46.626;18.866;2024-01-30T01:07:32;102807.47;;;0.04;95.11
58072;BME280;60383;46.626;18.866;2024-01-30T01:09:57;102804.22;;;0.31;94.33
58072;BME280;60383;46.626;18.866;2024-01-30T01:12:23;102802.41;;;0.32;94.33
58072;BME280;60383;46.626;18.866;2024-01-30T01:14:49;102794.34;;;0.32;93.76
58072;BME280;60383;46.626;18.866;2024-01-30T01:17:14;102800.63;;;0.31;93.91
58072;BME280;60383;46.626;18.866;2024-01-30T01:19:40;102804.88;;;0.43;92.80
58072;BME280;60383;46.626;18.866;2024-01-30T01:22:05;102797.38;;;0.56;93.61
58072;BME280;60383;46.626;18.866;2024-01-30T01:24:31;102793.88;;;0.54;93.26
58072;BME280;60383;46.626;18.866;2024-01-30T01:26:58;102794.16;;;0.40;93.47
58072;BME280;60383;46.626;18.866;2024-01-30T01:29:24;102786.03;;;-0.03;94.86
58072;BME280;60383;46.626;18.866;2024-01-30T01:31:57;102795.44;;;-0.24;95.51
58072;BME280;60383;46.626;18.866;2024-01-30T01:34:23;102795.41;;;-0.22;96.25
58072;BME280;60383;46.626;18.866;2024-01-30T01:36:49;102785.88;;;-0.39;96.74
58072;BME280;60383;46.626;18.866;2024-01-30T01:39:15;102796.19;;;-0.17;97.29
58072;BME280;60383;46.626;18.866;2024-01-30T01:41:41;102795.53;;;-0.28;97.83
58072;BME280;60383;46.626;18.866;2024-01-30T01:44:07;102791.88;;;-0.24;97.06
58072;BME280;60383;46.626;18.866;2024-01-30T01:46:33;102793.13;;;-0.44;98.22
58072;BME280;60383;46.626;18.866;2024-01-30T01:49:00;102793.13;;;-0.44;98.53
58072;BME280;60383;46.626;18.866;2024-01-30T01:51:29;102795.50;;;-0.27;98.94
58072;BME280;60383;46.626;18.866;2024-01-30T01:53:57;102790.72;;;-0.11;97.57
58072;BME280;60383;46.626;18.866;2024-01-30T01:56:23;102797.22;;;-0.23;97.39
58072;BME280;60383;46.626;18.866;2024-01-30T01:58:49;102794.78;;;-0.35;97.82
58072;BME280;60383;46.626;18.866;2024-01-30T02:01:16;102791.22;;;-0.37;99.04
58072;BME280;60383;46.626;18.866;2024-01-30T02:03:44;102788.75;;;-0.03;96.95
58072;BME280;60383;46.626;18.866;2024-01-30T02:06:10;102787.69;;;0.05;95.80
58072;BME280;60383;46.626;18.866;2024-01-30T02:08:37;102786.91;;;-0.01;96.01
58072;BME280;60383;46.626;18.866;2024-01-30T02:11:03;102790.84;;;0.27;95.36
58072;BME280;60383;46.626;18.866;2024-01-30T02:13:28;102793.78;;;0.16;95.71
58072;BME280;60383;46.626;18.866;2024-01-30T02:15:54;102789.00;;;0.29;96.10
58072;BME280;60383;46.626;18.866;2024-01-30T02:18:20;102788.97;;;0.30;96.53
58072;BME280;60383;46.626;18.866;2024-01-30T02:20:46;102791.00;;;0.19;96.63
58072;BME280;60383;46.626;18.866;2024-01-30T02:23:12;102790.03;;;0.23;95.98
58072;BME280;60383;46.626;18.866;2024-01-30T02:25:40;102791.78;;;0.24;95.91
58072;BME280;60383;46.626;18.866;2024-01-30T02:28:15;102794.09;;;0.01;96.64
58072;BME280;60383;46.626;18.866;2024-01-30T02:30:44;102793.28;;;-0.05;97.02
58072;BME280;60383;46.626;18.866;2024-01-30T02:33:09;102787.63;;;-0.38;98.23
58072;BME280;60383;46.626;18.866;2024-01-30T02:35:35;102796.59;;;-0.37;97.37
58072;BME280;60383;46.626;18.866;2024-01-30T02:38:00;102790.94;;;-0.22;96.90
58072;BME280;60383;46.626;18.866;2024-01-30T02:40:26;102796.28;;;-0.20;96.64
58072;BME280;60383;46.626;18.866;2024-01-30T02:42:51;102791.88;;;-0.26;96.76
58072;BME280;60383;46.626;18.866;2024-01-30T02:45:17;102786.81;;;-0.41;97.69
58072;BME280;60383;46.626;18.866;2024-01-30T02:47:42;102786.91;;;-0.47;98.70
58072;BME280;60383;46.626;18.866;2024-01-30T02:50:08;102792.50;;;-0.60;98.45
58072;BME280;60383;46.626;18.866;2024-01-30T02:52:34;102790.50;;;-0.47;97.29
58072;BME280;60383;46.626;18.866;2024-01-30T02:54:59;102786.69;;;-0.37;96.95
58072;BME280;60383;46.626;18.866;2024-01-30T02:57:25;102784.88;;;-0.35;98.15
58072;BME280;60383;46.626;18.866;2024-01-30T02:59:51;102781.91;;;-0.19;98.64
58072;BME280;60383;46.626;18.866;2024-01-30T03:02:16;102779.66;;;0.03;97.21
58072;BME280;60383;46.626;18.866;2024-01-30T03:04:42;102778.03;;;-0.06;97.64
58072;BME280;60383;46.626;18.866;2024-01-30T03:07:08;102772.69;;;-0.07;97.12
58072;BME280;60383;46.626;18.866;2024-01-30T03:09:36;102772.88;;;-0.17;96.43
58072;BME280;60383;46.626;18.866;2024-01-30T03:12:02;102776.63;;;-0.27;97.63
58072;BME280;60383;46.626;18.866;2024-01-30T03:14:28;102776.59;;;-0.24;97.37
58072;BME280;60383;46.626;18.866;2024-01-30T03:16:53;102771.16;;;-0.21;98.08
58072;BME280;60383;46.626;18.866;2024-01-30T03:19:19;102770.34;;;-0.24;97.47
58072;BME280;60383;46.626;18.866;2024-01-30T03:21:44;102768.47;;;-0.21;97.80
58072;BME280;60383;46.626;18.866;2024-01-30T03:24:10;102775.53;;;-0.15;97.39
58072;BME280;60383;46.626;18.866;2024-01-30T03:26:35;102770.19;;;-0.17;96.58
58072;BME280;60383;46.626;18.866;2024-01-30T03:29:01;102764.59;;;-0.07;97.40
58072;BME280;60383;46.626;18.866;2024-01-30T03:31:26;102760.69;;;0.08;97.26
58072;BME280;60383;46.626;18.866;2024-01-30T03:33:52;102767.13;;;0.01;98.34
58072;BME280;60383;46.626;18.866;2024-01-30T03:36:17;102767.44;;;-0.15;98.98
58072;BME280;60383;46.626;18.866;2024-01-30T03:38:43;102765.75;;;-0.19;99.08
58072;BME280;60383;46.626;18.866;2024-01-30T03:41:08;102769.25;;;-0.17;98.63
58072;BME280;60383;46.626;18.866;2024-01-30T03:43:35;102765.75;;;-0.19;99.02
58072;BME280;60383;46.626;18.866;2024-01-30T03:46:01;102766.66;;;-0.20;99.12
58072;BME280;60383;46.626;18.866;2024-01-30T03:48:27;102763.69;;;-0.08;97.98
58072;BME280;60383;46.626;18.866;2024-01-30T03:50:52;102770.34;;;-0.24;99.37
58072;BME280;60383;46.626;18.866;2024-01-30T03:53:18;102767.19;;;-0.48;99.18
58072;BME280;60383;46.626;18.866;2024-01-30T03:55:43;102766.69;;;-0.23;100.00
58072;BME280;60383;46.626;18.866;2024-01-30T03:58:09;102760.72;;;-0.39;100.00
58072;BME280;60383;46.626;18.866;2024-01-30T04:00:34;102759.78;;;-0.35;100.00
58072;BME280;60383;46.626;18.866;2024-01-30T04:03:00;102759.69;;;-0.32;100.00
58072;BME280;60383;46.626;18.866;2024-01-30T04:05:26;102760.94;;;-0.50;100.00
58072;BME280;60383;46.626;18.866;2024-01-30T04:07:51;102768.94;;;-0.45;100.00
58072;BME280;60383;46.626;18.866;2024-01-30T04:10:16;102767.97;;;-0.43;100.00
58072;BME280;60383;46.626;18.866;2024-01-30T04:12:42;102768.84;;;-0.41;100.00
58072;BME280;60383;46.626;18.866;2024-01-30T04:15:08;102767.94;;;-0.40;100.00
58072;BME280;60383;46.626;18.866;2024-01-30T04:17:33;102768.41;;;-0.66;100.00
58072;BME280;60383;46.626;18.866;2024-01-30T04:19:59;102766.50;;;-0.59;100.00
58072;BME280;60383;46.626;18.866;2024-01-30T04:22:24;102765.06;;;-0.32;100.00
58072;BME280;60383;46.626;18.866;2024-01-30T04:24:50;102770.16;;;-0.63;100.00
58072;BME280;60383;46.626;18.866;2024-01-30T04:27:15;102762.75;;;-0.51;100.00
58072;BME280;60383;46.626;18.866;2024-01-30T04:29:41;102761.00;;;-0.55;100.00
58072;BME280;60383;46.626;18.866;2024-01-30T04:32:06;102763.94;;;-0.66;100.00
58072;BME280;60383;46.626;18.866;2024-01-30T04:34:32;102770.19;;;-0.65;100.00
58072;BME280;60383;46.626;18.866;2024-01-30T04:36:57;102768.25;;;-0.58;100.00
58072;BME280;60383;46.626;18.866;2024-01-30T04:39:23;102770.78;;;-0.49;100.00
58072;BME280;60383;46.626;18.866;2024-01-30T04:41:48;102772.41;;;-0.40;100.00
58072;BME280;60383;46.626;18.866;2024-01-30T04:44:14;102769.09;;;-0.55;100.00
58072;BME280;60383;46.626;18.866;2024-01-30T04:46:39;102764.22;;;-0.33;100.00
58072;BME280;60383;46.626;18.866;2024-01-30T04:49:05;102768.94;;;-0.45;100.00
58072;BME280;60383;46.626;18.866;2024-01-30T04:51:33;102767.22;;;-0.50;100.00
58072;BME280;60383;46.626;18.866;2024-01-30T04:53:58;102767.13;;;-0.45;100.00
58072;BME280;60383;46.626;18.866;2024-01-30T04:56:24;102762.59;;;-0.41;100.00
58072;BME280;60383;46.626;18.866;2024-01-30T04:58:49;102773.72;;;-0.61;100.00
58072;BME280;60383;46.626;18.866;2024-01-30T05:01:18;102778.25;;;-0.65;100.00
58072;BME280;60383;46.626;18.866;2024-01-30T05:03:43;102772.09;;;-0.72;100.00
58072;BME280;60383;46.626;18.866;2024-01-30T05:06:09;102778.81;;;-0.98;100.00
58072;BME280;60383;46.626;18.866;2024-01-30T05:08:34;102771.88;;;-1.13;100.00
58072;BME280;60383;46.626;18.866;2024-01-30T05:11:05;102777.81;;;-0.92;100.00
58072;BME280;60383;46.626;18.866;2024-01-30T05:13:31;102772.25;;;-0.81;100.00
58072;BME280;60383;46.626;18.866;2024-01-30T05:15:57;102776.66;;;-0.77;100.00
58072;BME280;60383;46.626;18.866;2024-01-30T05:18:22;102780.25;;;-0.76;100.00
58072;BME280;60383;46.626;18.866;2024-01-30T05:20:50;102778.00;;;-1.03;100.00
58072;BME280;60383;46.626;18.866;2024-01-30T05:23:15;102785.81;;;-0.89;100.00
58072;BME280;60383;46.626;18.866;2024-01-30T05:25:41;102786.94;;;-1.01;100.00
58072;BME280;60383;46.626;18.866;2024-01-30T05:28:06;102782.22;;;-0.88;100.00
58072;BME280;60383;46.626;18.866;2024-01-30T05:30:31;102781.13;;;-0.76;100.00
58072;BME280;60383;46.626;18.866;2024-01-30T05:32:57;102773.31;;;-0.90;100.00
58072;BME280;60383;46.626;18.866;2024-01-30T05:35:22;102784.06;;;-0.90;100.00
58072;BME280;60383;46.626;18.866;2024-01-30T05:37:48;102784.22;;;-0.99;100.00
58072;BME280;60383;46.626;18.866;2024-01-30T05:40:15;102787.63;;;-0.89;100.00
58072;BME280;60383;46.626;18.866;2024-01-30T05:42:40;102785.75;;;-0.84;100.00
58072;BME280;60383;46.626;18.866;2024-01-30T05:45:06;102784.84;;;-0.83;100.00
58072;BME280;60383;46.626;18.866;2024-01-30T05:47:32;102789.03;;;-0.65;100.00
58072;BME280;60383;46.626;18.866;2024-01-30T05:49:57;102794.13;;;-0.50;99.81
58072;BME280;60383;46.626;18.866;2024-01-30T05:52:22;102798.81;;;-0.59;99.86
58072;BME280;60383;46.626;18.866;2024-01-30T05:54:48;102792.69;;;-0.71;100.00
58072;BME280;60383;46.626;18.866;2024-01-30T05:57:13;102802.81;;;-0.84;100.00
58072;BME280;60383;46.626;18.866;2024-01-30T05:59:39;102796.84;;;-1.06;100.00
58072;BME280;60383;46.626;18.866;2024-01-30T06:02:04;102806.78;;;-1.08;100.00
58072;BME280;60383;46.626;18.866;2024-01-30T06:04:30;102799.38;;;-0.93;100.00
58072;BME280;60383;46.626;18.866;2024-01-30T06:06:55;102800.50;;;-1.08;100.00
58072;BME280;60383;46.626;18.866;2024-01-30T06:09:21;102803.91;;;-0.97;100.00
58072;BME280;60383;46.626;18.866;2024-01-30T06:11:46;102810.81;;;-0.79;100.00
58072;BME280;60383;46.626;18.866;2024-01-30T06:14:12;102804.63;;;-0.86;100.00
58072;BME280;60383;46.626;18.866;2024-01-30T06:16:37;102807.03;;;-1.26;100.00
58072;BME280;60383;46.626;18.866;2024-01-30T06:19:02;102795.34;;;-1.22;100.00
58072;BME280;60383;46.626;18.866;2024-01-30T06:21:28;102811.81;;;-0.88;100.00
58072;BME280;60383;46.626;18.866;2024-01-30T06:23:53;102805.94;;;-1.11;100.00
58072;BME280;60383;46.626;18.866;2024-01-30T06:26:19;102808.66;;;-1.15;100.00
58072;BME280;60383;46.626;18.866;2024-01-30T06:28:44;102813.88;;;-1.04;100.00
58072;BME280;60383;46.626;18.866;2024-01-30T06:31:10;102808.59;;;-1.10;100.00
58072;BME280;60383;46.626;18.866;2024-01-30T06:33:35;102811.06;;;-0.96;100.00
58072;BME280;60383;46.626;18.866;2024-01-30T06:36:01;102812.69;;;-0.86;100.00
58072;BME280;60383;46.626;18.866;2024-01-30T06:38:26;102809.00;;;-0.78;100.00
58072;BME280;60383;46.626;18.866;2024-01-30T06:40:51;102813.50;;;-0.81;100.00
58072;BME280;60383;46.626;18.866;2024-01-30T06:43:17;102811.72;;;-0.80;100.00
58072;BME280;60383;46.626;18.866;2024-01-30T06:45:42;102816.63;;;-1.08;100.00
58072;BME280;60383;46.626;18.866;2024-01-30T06:48:08;102816.19;;;-0.81;100.00
58072;BME280;60383;46.626;18.866;2024-01-30T06:50:34;102817.88;;;-0.73;100.00
58072;BME280;60383;46.626;18.866;2024-01-30T06:52:59;102817.53;;;-0.53;100.00
58072;BME280;60383;46.626;18.866;2024-01-30T06:55:24;102812.34;;;-0.64;100.00
58072;BME280;60383;46.626;18.866;2024-01-30T06:57:50;102820.34;;;-0.59;100.00
58072;BME280;60383;46.626;18.866;2024-01-30T07:00:16;102820.72;;;-0.83;100.00
58072;BME280;60383;46.626;18.866;2024-01-30T07:02:41;102817.88;;;-0.73;100.00
58072;BME280;60383;46.626;18.866;2024-01-30T07:05:07;102825.84;;;-0.67;100.00
58072;BME280;60383;46.626;18.866;2024-01-30T07:07:33;102829.47;;;-0.70;100.00
58072;BME280;60383;46.626;18.866;2024-01-30T07:09:58;102823.16;;;-0.67;100.00
58072;BME280;60383;46.626;18.866;2024-01-30T07:12:24;102828.22;;;-0.50;100.00
58072;BME280;60383;46.626;18.866;2024-01-30T07:14:52;102827.53;;;-0.61;100.00
58072;BME280;60383;46.626;18.866;2024-01-30T07:17:17;102830.84;;;-0.45;100.00
58072;BME280;60383;46.626;18.866;2024-01-30T07:19:43;102826.97;;;-0.29;99.40
58072;BME280;60383;46.626;18.866;2024-01-30T07:22:08;102828.31;;;-0.06;98.65
58072;BME280;60383;46.626;18.866;2024-01-30T07:24:34;102834.41;;;0.05;98.58
58072;BME280;60383;46.626;18.866;2024-01-30T07:26:59;102826.75;;;-0.17;98.81
58072;BME280;60383;46.626;18.866;2024-01-30T07:29:25;102830.97;;;-0.03;99.29
58072;BME280;60383;46.626;18.866;2024-01-30T07:31:51;102834.22;;;-0.34;98.09
58072;BME280;60383;46.626;18.866;2024-01-30T07:34:16;102835.25;;;0.07;97.39
58072;BME280;60383;46.626;18.866;2024-01-30T07:36:42;102833.72;;;-0.05;95.81
58072;BME280;60383;46.626;18.866;2024-01-30T07:39:07;102837.75;;;-0.29;97.61
58072;BME280;60383;46.626;18.866;2024-01-30T07:41:33;102832.13;;;-0.17;96.96
58072;BME280;60383;46.626;18.866;2024-01-30T07:43:58;102826.25;;;0.08;96.96
58072;BME280;60383;46.626;18.866;2024-01-30T07:46:23;102831.63;;;0.10;97.11
58072;BME280;60383;46.626;18.866;2024-01-30T07:48:49;102826.00;;;-0.25;96.45
58072;BME280;60383;46.626;18.866;2024-01-30T07:51:15;102831.13;;;-0.11;95.99
58072;BME280;60383;46.626;18.866;2024-01-30T07:53:40;102827.25;;;0.04;96.88
58072;BME280;60383;46.626;18.866;2024-01-30T07:56:07;102823.47;;;0.13;96.04
58072;BME280;60383;46.626;18.866;2024-01-30T07:58:32;102816.16;;;0.18;95.46
58072;BME280;60383;46.626;18.866;2024-01-30T08:00:58;102825.47;;;0.03;96.20
58072;BME280;60383;46.626;18.866;2024-01-30T08:03:24;102827.19;;;0.06;95.61
58072;BME280;60383;46.626;18.866;2024-01-30T08:05:49;102809.59;;;0.33;95.06
58072;BME280;60383;46.626;18.866;2024-01-30T08:08:15;102811.81;;;0.55;94.18
58072;BME280;60383;46.626;18.866;2024-01-30T08:10:40;102808.84;;;0.67;93.34
58072;BME280;60383;46.626;18.866;2024-01-30T08:13:06;102814.50;;;0.94;92.23
58072;BME280;60383;46.626;18.866;2024-01-30T08:15:32;102805.72;;;0.86;91.60
58072;BME280;60383;46.626;18.866;2024-01-30T08:17:57;102803.47;;;1.05;92.38
58072;BME280;60383;46.626;18.866;2024-01-30T08:20:24;102805.75;;;1.22;91.44
58072;BME280;60383;46.626;18.866;2024-01-30T08:22:51;102802.50;;;1.42;89.99
58072;BME280;60383;46.626;18.866;2024-01-30T08:25:16;102800.97;;;1.68;89.82
58072;BME280;60383;46.626;18.866;2024-01-30T08:27:41;102808.25;;;1.64;87.88
58072;BME280;60383;46.626;18.866;2024-01-30T08:30:07;102804.03;;;1.87;87.78
58072;BME280;60383;46.626;18.866;2024-01-30T08:32:33;102807.09;;;2.06;86.94
58072;BME280;60383;46.626;18.866;2024-01-30T08:34:59;102807.41;;;2.27;85.43
58072;BME280;60383;46.626;18.866;2024-01-30T08:37:25;102809.84;;;2.36;85.81
58072;BME280;60383;46.626;18.866;2024-01-30T08:39:50;102806.72;;;2.18;85.56
58072;BME280;60383;46.626;18.866;2024-01-30T08:42:16;102803.53;;;2.04;87.91
58072;BME280;60383;46.626;18.866;2024-01-30T08:44:43;102806.47;;;2.28;85.99
58072;BME280;60383;46.626;18.866;2024-01-30T08:47:09;102810.47;;;2.46;85.67
58072;BME280;60383;46.626;18.866;2024-01-30T08:49:34;102814.75;;;2.53;85.05
58072;BME280;60383;46.626;18.866;2024-01-30T08:52:00;102823.34;;;2.66;84.79
58072;BME280;60383;46.626;18.866;2024-01-30T08:54:25;102817.28;;;2.58;84.42
58072;BME280;60383;46.626;18.866;2024-01-30T08:56:51;102810.47;;;3.31;83.26
58072;BME280;60383;46.626;18.866;2024-01-30T08:59:18;102804.94;;;4.35;79.09
58072;BME280;60383;46.626;18.866;2024-01-30T09:01:44;102803.94;;;5.06;76.06
58072;BME280;60383;46.626;18.866;2024-01-30T09:04:09;102807.34;;;5.54;71.80
58072;BME280;60383;46.626;18.866;2024-01-30T09:06:35;102809.56;;;5.87;71.46
58072;BME280;60383;46.626;18.866;2024-01-30T09:09:00;102799.41;;;6.11;70.57
58072;BME280;60383;46.626;18.866;2024-01-30T09:11:26;102803.59;;;5.99;71.69
58072;BME280;60383;46.626;18.866;2024-01-30T09:13:51;102800.13;;;6.35;70.17
58072;BME280;60383;46.626;18.866;2024-01-30T09:16:17;102799.75;;;6.81;69.50
58072;BME280;60383;46.626;18.866;2024-01-30T09:18:42;102803.72;;;7.12;67.26
58072;BME280;60383;46.626;18.866;2024-01-30T09:21:08;102802.88;;;7.29;66.47
58072;BME280;60383;46.626;18.866;2024-01-30T09:23:33;102799.50;;;7.24;66.88
58072;BME280;60383;46.626;18.866;2024-01-30T09:25:59;102805.81;;;7.42;65.36
58072;BME280;60383;46.626;18.866;2024-01-30T09:28:25;102803.91;;;7.79;65.01
58072;BME280;60383;46.626;18.866;2024-01-30T09:30:50;102799.41;;;7.96;64.17
58072;BME280;60383;46.626;18.866;2024-01-30T09:33:15;102805.06;;;6.46;69.31
58072;BME280;60383;46.626;18.866;2024-01-30T09:35:41;102803.44;;;7.71;65.89
58072;BME280;60383;46.626;18.866;2024-01-30T09:38:06;102798.69;;;7.75;65.86
58072;BME280;60383;46.626;18.866;2024-01-30T09:40:32;102799.41;;;7.78;66.97
58072;BME280;60383;46.626;18.866;2024-01-30T09:42:58;102796.28;;;8.37;64.04
58072;BME280;60383;46.626;18.866;2024-01-30T09:45:25;102790.94;;;8.52;64.30
58072;BME280;60383;46.626;18.866;2024-01-30T09:47:52;102789.72;;;9.05;63.12
58072;BME280;60383;46.626;18.866;2024-01-30T09:50:18;102784.69;;;8.82;63.00
58072;BME280;60383;46.626;18.866;2024-01-30T09:52:47;102792.63;;;9.02;62.38
58072;BME280;60383;46.626;18.866;2024-01-30T09:55:13;102782.06;;;8.64;62.65
58072;BME280;60383;46.626;18.866;2024-01-30T09:57:39;102784.34;;;8.72;64.01
58072;BME280;60383;46.626;18.866;2024-01-30T10:00:06;102788.22;;;8.00;63.96
58072;BME280;60383;46.626;18.866;2024-01-30T10:02:35;102780.09;;;8.82;65.49
58072;BME280;60383;46.626;18.866;2024-01-30T10:05:01;102772.41;;;8.41;65.32
58072;BME280;60383;46.626;18.866;2024-01-30T10:07:27;102783.19;;;9.08;62.93
58072;BME280;60383;46.626;18.866;2024-01-30T10:09:53;102778.19;;;9.47;60.76
58072;BME280;60383;46.626;18.866;2024-01-30T10:12:19;102781.47;;;9.37;62.60
58072;BME280;60383;46.626;18.866;2024-01-30T10:14:44;102777.84;;;9.37;61.65
58072;BME280;60383;46.626;18.866;2024-01-30T10:17:11;102768.69;;;9.22;60.20
58072;BME280;60383;46.626;18.866;2024-01-30T10:19:40;102769.34;;;9.11;61.77
58072;BME280;60383;46.626;18.866;2024-01-30T10:22:06;102764.31;;;9.50;60.04
58072;BME280;60383;46.626;18.866;2024-01-30T10:24:35;102774.97;;;9.24;61.04
58072;BME280;60383;46.626;18.866;2024-01-30T10:27:01;102776.03;;;9.52;60.30
58072;BME280;60383;46.626;18.866;2024-01-30T10:29:27;102767.56;;;9.56;58.52
58072;BME280;60383;46.626;18.866;2024-01-30T10:32:06;102769.28;;;9.43;59.23
58072;BME280;60383;46.626;18.866;2024-01-30T10:34:32;102767.94;;;9.65;57.99
58072;BME280;60383;46.626;18.866;2024-01-30T10:39:37;102763.03;;;8.94;60.89
58072;BME280;60383;46.626;18.866;2024-01-30T10:42:04;102763.25;;;9.06;58.90
58072;BME280;60383;46.626;18.866;2024-01-30T10:44:44;102765.53;;;9.14;58.85
58072;BME280;60383;46.626;18.866;2024-01-30T10:47:18;102761.41;;;9.22;58.88
58072;BME280;60383;46.626;18.866;2024-01-30T10:49:47;102763.88;;;9.11;59.24
58072;BME280;60383;46.626;18.866;2024-01-30T10:52:13;102761.53;;;9.35;57.87
58072;BME280;60383;46.626;18.866;2024-01-30T10:54:40;102750.13;;;9.13;58.72
58072;BME280;60383;46.626;18.866;2024-01-30T10:57:06;102749.94;;;9.16;58.20
58072;BME280;60383;46.626;18.866;2024-01-30T10:59:32;102750.91;;;9.15;58.50
58072;BME280;60383;46.626;18.866;2024-01-30T11:01:59;102758.41;;;9.11;57.65
58072;BME280;60383;46.626;18.866;2024-01-30T11:04:25;102760.22;;;8.80;57.20
58072;BME280;60383;46.626;18.866;2024-01-30T11:06:50;102744.34;;;8.71;58.83
58072;BME280;60383;46.626;18.866;2024-01-30T11:09:17;102743.22;;;8.75;58.66
58072;BME280;60383;46.626;18.866;2024-01-30T11:11:56;102750.81;;;8.20;58.63
58072;BME280;60383;46.626;18.866;2024-01-30T11:14:31;102747.06;;;8.55;59.13
58072;BME280;60383;46.626;18.866;2024-01-30T11:16:59;102734.19;;;8.41;59.18
58072;BME280;60383;46.626;18.866;2024-01-30T11:19:26;102731.97;;;8.31;59.39
58072;BME280;60383;46.626;18.866;2024-01-30T11:21:55;102730.09;;;8.16;60.15
58072;BME280;60383;46.626;18.866;2024-01-30T11:24:22;102730.41;;;7.94;60.24
58072;BME280;60383;46.626;18.866;2024-01-30T11:26:58;102724.69;;;7.98;60.99
58072;BME280;60383;46.626;18.866;2024-01-30T11:29:29;102722.78;;;8.17;60.64
58072;BME280;60383;46.626;18.866;2024-01-30T11:31:56;102718.88;;;7.89;60.89
58072;BME280;60383;46.626;18.866;2024-01-30T11:34:22;102718.56;;;7.93;61.03
58072;BME280;60383;46.626;18.866;2024-01-30T11:36:53;102714.28;;;7.89;61.33
58072;BME280;60383;46.626;18.866;2024-01-30T11:39:24;102711.38;;;7.92;60.98
58072;BME280;60383;46.626;18.866;2024-01-30T11:41:50;102714.59;;;7.83;61.82
58072;BME280;60383;46.626;18.866;2024-01-30T11:44:18;102712.50;;;7.55;62.13
58072;BME280;60383;46.626;18.866;2024-01-30T11:46:45;102709.81;;;7.71;62.01
58072;BME280;60383;46.626;18.866;2024-01-30T11:49:11;102705.56;;;7.82;61.66
58072;BME280;60383;46.626;18.866;2024-01-30T11:51:36;102706.09;;;7.89;62.76
58072;BME280;60383;46.626;18.866;2024-01-30T11:54:02;102695.66;;;8.13;61.09
58072;BME280;60383;46.626;18.866;2024-01-30T11:56:28;102694.16;;;8.24;60.04
58072;BME280;60383;46.626;18.866;2024-01-30T11:58:54;102690.19;;;8.13;59.72
58072;BME280;60383;46.626;18.866;2024-01-30T12:01:20;102684.59;;;8.17;60.22
58072;BME280;60383;46.626;18.866;2024-01-30T12:03:51;102690.78;;;8.03;59.75
58072;BME280;60383;46.626;18.866;2024-01-30T12:06:17;102694.50;;;8.02;60.54
58072;BME280;60383;46.626;18.866;2024-01-30T12:08:43;102688.75;;;7.90;60.10
58072;BME280;60383;46.626;18.866;2024-01-30T12:11:09;102691.47;;;7.90;58.06
58072;BME280;60383;46.626;18.866;2024-01-30T12:13:35;102687.66;;;7.77;59.09
58072;BME280;60383;46.626;18.866;2024-01-30T12:16:01;102687.91;;;7.72;59.44
58072;BME280;60383;46.626;18.866;2024-01-30T12:18:26;102683.63;;;6.98;61.85
58072;BME280;60383;46.626;18.866;2024-01-30T12:21:01;102680.03;;;7.32;62.42
58072;BME280;60383;46.626;18.866;2024-01-30T12:23:27;102677.78;;;7.23;62.86
58072;BME280;60383;46.626;18.866;2024-01-30T12:25:53;102668.56;;;7.08;65.71
58072;BME280;60383;46.626;18.866;2024-01-30T12:28:20;102671.13;;;7.11;64.63
58072;BME280;60383;46.626;18.866;2024-01-30T12:30:46;102658.53;;;7.26;65.24
58072;BME280;60383;46.626;18.866;2024-01-30T12:33:17;102663.41;;;7.37;58.51
58072;BME280;60383;46.626;18.866;2024-01-30T12:35:47;102660.34;;;6.36;62.54
58072;BME280;60383;46.626;18.866;2024-01-30T12:38:14;102654.13;;;6.88;62.87
58072;BME280;60383;46.626;18.866;2024-01-30T12:40:39;102656.16;;;7.38;60.84